Acampo, California
Current Conditions -  °F | °C
As of 9:55 AM on Tuesday 21 Oct 2014 (Local Time) from KSCK Reporting Station
Clear Clear  
Wind Chill: 63°   Ceiling: Unl
Heat Index: 63°   Visibility: 10mi
Dew Point: 46°   Wind: 15mph
Humidity: 54%   Direction: 310°NW
Pressure: 30.09"   Gusts: NA
Location:  38.17°N, 121.28°W
Report Text: KSCK 211655Z 31013KT 10SM CLR 17/08 A3009 RMK AO2 SLP190 T01720078
Loading
Personal Weather Stations






























Interactive Weather Map New forecast layout! Learn more

10-Day Weather Forecast

Advertisements
Track Severe Weather on mobile